Time;durP1;ratioP1;P1;durP2;ratioP2;P2;SDS_P1;SDS_P2;PMS_P1;PMS_P2;Temp;Humidity;BMP_temperature;BMP_pressure;BME280_temperature;BME280_humidity;BME280_pressure;Samples;Min_cycle;Max_cycle;Signal;HPM_P1;HPM_P2
2020/12/20 00:04:01;;;;;;;16.83;9.50;;;;;;;3.52;81.63;99601.22;262112;1101;23364;-77
2020/12/20 00:09:24;;;;;;;16.83;9.50;;;;;;;3.49;81.42;99598.23;262122;1101;23491;-76
2020/12/20 00:14:26;;;;;;;18.55;10.35;;;;;;;3.43;81.60;99591.97;262104;1101;24345;-77
2020/12/20 00:19:29;;;;;;;15.60;8.40;;;;;;;3.42;82.14;99579.75;261874;1102;23465;-76
2020/12/20 00:24:32;;;;;;;15.90;9.93;;;;;;;3.40;82.08;99582.63;262169;1101;23404;-76
2020/12/20 00:29:35;;;;;;;16.80;9.57;;;;;;;3.39;81.76;99590.80;262351;1097;23358;-77
2020/12/20 00:34:38;;;;;;;13.60;8.10;;;;;;;3.37;81.76;99588.37;262059;1101;23366;-76
2020/12/20 00:39:40;;;;;;;15.03;8.80;;;;;;;3.41;81.53;99596.66;262206;1101;23318;-78
2020/12/20 00:44:42;;;;;;;16.10;8.63;;;;;;;3.40;81.76;99598.52;262129;1101;23334;-77
2020/12/20 00:49:45;;;;;;;16.27;9.53;;;;;;;3.41;81.68;99596.66;262027;1101;23559;-77
2020/12/20 00:54:48;;;;;;;13.83;8.50;;;;;;;3.42;81.74;99603.59;262170;1101;26539;-77
2020/12/20 00:59:50;;;;;;;13.33;8.00;;;;;;;3.43;81.88;99602.56;262047;1101;26946;-76
2020/12/20 01:04:53;;;;;;;13.60;8.00;;;;;;;3.41;82.14;99597.50;262435;1101;23376;-75
2020/12/20 01:09:56;;;;;;;14.50;8.93;;;;;;;3.42;82.28;99595.64;262232;1101;23390;-76
2020/12/20 01:14:59;;;;;;;13.13;7.70;;;;;;;3.39;81.77;99596.09;262108;1097;23383;-76
2020/12/20 01:20:01;;;;;;;14.90;7.87;;;;;;;3.37;82.01;99582.25;262077;1096;23391;-77
2020/12/20 01:25:03;;;;;;;12.87;7.80;;;;;;;3.40;81.82;99581.80;262147;1097;23361;-77
2020/12/20 01:30:06;;;;;;;15.43;8.17;;;;;;;3.42;81.77;99590.34;262036;1101;23815;-77
2020/12/20 01:35:10;;;;;;;13.03;7.93;;;;;;;3.39;81.76;99583.65;262104;1096;23829;-77
2020/12/20 01:40:12;;;;;;;14.17;8.60;;;;;;;3.42;81.93;99580.55;262356;1101;23534;-77
2020/12/20 01:45:15;;;;;;;12.75;7.55;;;;;;;3.39;81.79;99583.65;262126;1101;23455;-77
2020/12/20 01:50:20;;;;;;;12.40;8.00;;;;;;;3.38;81.60;99589.17;262211;1093;23650;-75
2020/12/20 01:55:26;;;;;;;12.43;7.90;;;;;;;3.38;82.17;99589.17;262343;1101;23905;-77
2020/12/20 02:00:32;;;;;;;15.03;8.53;;;;;;;3.38;81.68;99584.67;262271;1101;24932;-76
2020/12/20 02:06:01;;;;;;;12.40;7.45;;;;;;;3.39;81.81;99581.00;262051;1096;23608;-76
2020/12/20 02:11:16;;;;;;;11.67;7.37;;;;;;;3.40;81.93;99576.50;262007;1101;23778;-77
2020/12/20 02:16:22;;;;;;;16.27;8.33;;;;;;;3.39;81.54;99581.00;262487;1095;24891;-77
2020/12/20 02:21:27;;;;;;;12.30;8.17;;;;;;;3.42;81.65;99591.14;262484;1101;26861;-76
2020/12/20 02:26:33;;;;;;;14.20;8.17;;;;;;;3.45;81.94;99589.09;262434;1101;23380;-76
2020/12/20 02:31:37;;;;;;;13.83;8.70;;;;;;;3.46;81.92;99577.48;262259;1101;23357;-76
2020/12/20 02:36:41;;;;;;;13.47;7.50;;;;;;;3.46;81.64;99582.78;262127;1101;26453;-76
2020/12/20 02:41:45;;;;;;;13.77;8.23;;;;;;;3.47;81.76;99577.26;262081;1101;23400;-77
2020/12/20 02:46:48;;;;;;;12.70;7.50;;;;;;;3.46;81.58;99580.93;262131;1096;23408;-77
2020/12/20 02:51:57;;;;;;;10.20;6.20;;;;;;;3.41;81.75;99584.25;262078;1101;23361;-76
2020/12/20 02:56:59;;;;;;;12.50;7.57;;;;;;;3.39;82.14;99574.91;262148;1096;23418;-76
2020/12/20 03:02:14;;;;;;;12.90;7.50;;;;;;;3.39;81.79;99585.50;262155;1101;23402;-77
2020/12/20 03:07:18;;;;;;;11.93;7.20;;;;;;;3.36;81.90;99583.30;262155;1101;23428;-77
2020/12/20 03:12:24;;;;;;;13.23;7.67;;;;;;;3.36;81.79;99591.24;262322;1101;26391;-77
2020/12/20 03:17:26;;;;;;;10.57;6.63;;;;;;;3.34;81.95;99582.69;261985;1101;23639;-77
2020/12/20 03:22:29;;;;;;;10.90;6.03;;;;;;;3.33;81.87;99578.41;262048;1101;23308;-77
2020/12/20 03:27:52;;;;;;;9.70;6.17;;;;;;;3.33;82.01;99576.59;261912;1101;23384;-77
2020/12/20 03:33:13;;;;;;;10.97;6.37;;;;;;;3.29;82.04;99575.42;262118;1101;23908;-77
2020/12/20 03:38:32;;;;;;;10.20;5.87;;;;;;;3.30;81.98;99579.66;262213;1101;23440;-77
2020/12/20 03:43:35;;;;;;;11.20;6.20;;;;;;;3.32;81.86;99579.47;262073;1101;24393;-76
2020/12/20 03:48:38;;;;;;;12.50;6.73;;;;;;;3.31;81.85;99577.84;262302;1101;23555;-76
2020/12/20 03:53:50;;;;;;;11.87;6.80;;;;;;;3.31;81.67;99561.95;262360;1102;23362;-77
2020/12/20 03:58:53;;;;;;;9.43;5.93;;;;;;;3.27;81.87;99571.37;262195;1096;23982;-76
2020/12/20 04:03:57;;;;;;;9.27;5.27;;;;;;;3.23;82.29;99565.69;262065;1097;26510;-76
2020/12/20 04:08:59;;;;;;;10.05;5.30;;;;;;;3.21;81.95;99557.97;262035;1102;23495;-76
2020/12/20 04:14:34;;;;;;;9.60;4.87;;;;;;;3.20;82.08;99571.44;261869;1101;23406;-75
2020/12/20 04:19:36;;;;;;;9.97;5.53;;;;;;;3.20;82.12;99574.87;262525;1101;23347;-77
2020/12/20 04:24:45;;;;;;;7.77;4.53;;;;;;;3.27;81.95;99566.87;262259;1101;23422;-77
2020/12/20 04:29:48;;;;;;;9.73;6.33;;;;;;;3.29;81.91;99569.30;262045;1101;23468;-76
2020/12/20 04:34:50;;;;;;;9.43;5.60;;;;;;;3.32;82.06;99558.28;262072;1101;23805;-76
2020/12/20 04:39:53;;;;;;;6.83;4.80;;;;;;;3.35;81.75;99565.78;262284;1096;23555;-76
2020/12/20 04:44:58;;;;;;;8.63;5.70;;;;;;;3.38;81.76;99562.68;262037;1096;23350;-77
2020/12/20 04:50:01;;;;;;;8.73;5.20;;;;;;;3.45;82.07;99563.41;262079;1095;23438;-77
2020/12/20 04:55:06;;;;;;;11.57;6.10;;;;;;;3.48;81.83;99568.25;261974;1096;23437;-78
2020/12/20 05:00:26;;;;;;;9.13;5.73;;;;;;;3.50;81.33;99566.21;262141;1093;23350;-77
2020/12/20 05:05:29;;;;;;;9.10;5.85;;;;;;;3.53;81.58;99557.02;262029;1101;23347;-77
2020/12/20 05:10:39;;;;;;;12.40;6.70;;;;;;;3.50;81.68;99565.38;262114;1101;23351;-76
2020/12/20 05:15:42;;;;;;;13.50;7.43;;;;;;;3.48;81.46;99564.81;262245;1101;23573;-76
2020/12/20 05:20:59;;;;;;;12.57;7.53;;;;;;;3.50;81.33;99576.80;262168;1097;23498;-77
2020/12/20 05:26:06;;;;;;;11.47;7.20;;;;;;;3.50;81.28;99574.16;262184;1096;23349;-78
2020/12/20 05:31:11;;;;;;;12.00;6.90;;;;;;;3.53;81.36;99579.01;261967;1101;23479;-76
2020/12/20 05:36:29;;;;;;;9.33;6.33;;;;;;;3.55;81.29;99587.56;262262;1096;24935;-76
2020/12/20 05:41:45;;;;;;;13.17;8.33;;;;;;;3.49;81.22;99583.13;262185;1096;23384;-77
2020/12/20 05:46:48;;;;;;;13.83;8.60;;;;;;;3.45;81.39;99594.40;262107;1096;26395;-76
2020/12/20 05:52:06;;;;;;;12.87;7.83;;;;;;;3.39;81.55;99601.39;261939;1096;23420;-77
2020/12/20 05:57:16;;;;;;;15.23;8.43;;;;;;;3.37;81.53;99604.27;261985;1101;23847;-76
2020/12/20 06:02:19;;;;;;;12.80;7.50;;;;;;;3.33;81.68;99602.25;262128;1101;23381;-76
2020/12/20 06:07:26;;;;;;;17.17;8.97;;;;;;;3.28;81.60;99610.06;262249;1101;23473;-77
2020/12/20 06:12:30;;;;;;;11.30;6.83;;;;;;;3.30;81.90;99608.80;262126;1101;23357;-76
2020/12/20 06:17:43;;;;;;;11.93;7.27;;;;;;;3.33;81.63;99613.67;262077;1101;23366;-76
2020/12/20 06:22:53;;;;;;;12.43;7.87;;;;;;;3.28;81.86;99605.57;262386;1096;23347;-77
2020/12/20 06:28:04;;;;;;;15.15;8.68;;;;;;;3.25;82.00;99611.31;262227;1096;23387;-77
2020/12/20 06:33:19;;;;;;;13.80;8.80;;;;;;;3.24;81.95;99613.13;262179;1096;23986;-76
2020/12/20 06:38:24;;;;;;;18.63;9.73;;;;;;;3.20;82.10;99609.30;262045;1096;23557;-76
2020/12/20 06:43:36;;;;;;;17.07;9.63;;;;;;;3.20;82.08;99614.59;262348;1101;23419;-77
2020/12/20 06:48:39;;;;;;;16.90;9.80;;;;;;;3.16;82.14;99623.20;262358;1101;23502;-76
2020/12/20 06:53:45;;;;;;;18.10;8.67;;;;;;;3.14;82.45;99626.07;262439;1101;23309;-75
2020/12/20 06:58:48;;;;;;;16.83;8.33;;;;;;;3.16;82.09;99628.50;262103;1101;23461;-77
2020/12/20 07:03:50;;;;;;;15.07;8.40;;;;;;;3.15;82.40;99627.70;262391;1097;23363;-77
2020/12/20 07:09:00;;;;;;;15.05;8.45;;;;;;;3.11;82.50;99625.72;262165;1097;28273;-76
2020/12/20 07:14:16;;;;;;;14.90;8.30;;;;;;;3.09;82.20;99623.27;262013;1101;23359;-76
2020/12/20 07:19:22;;;;;;;13.30;8.47;;;;;;;3.10;82.35;99629.39;262347;1101;26820;-76
2020/12/20 07:24:31;;;;;;;18.05;10.35;;;;;;;3.14;82.41;99620.78;262128;1101;23401;-76
2020/12/20 07:29:38;;;;;;;16.70;9.97;;;;;;;3.15;82.07;99627.70;262033;1096;23387;-78
2020/12/20 07:34:46;;;;;;;15.60;8.83;;;;;;;3.17;82.31;99635.42;262156;1101;23406;-76
2020/12/20 07:40:04;;;;;;;17.93;11.00;;;;;;;3.19;82.28;99642.13;262241;1101;23393;-78
2020/12/20 07:45:06;;;;;;;19.50;11.60;;;;;;;3.29;82.35;99638.15;262130;1101;23517;-77
2020/12/20 07:50:08;;;;;;;19.93;11.70;;;;;;;3.37;82.13;99641.34;262080;1096;23418;-77
2020/12/20 07:55:10;;;;;;;17.20;9.37;;;;;;;3.40;82.00;99653.31;262014;1101;23422;-77
2020/12/20 08:00:14;;;;;;;20.77;12.47;;;;;;;3.46;82.36;99647.16;262075;1101;23457;-77
2020/12/20 08:05:17;;;;;;;21.77;12.70;;;;;;;3.55;82.41;99648.50;261952;1101;23387;-77
2020/12/20 08:10:23;;;;;;;19.00;10.60;;;;;;;3.68;82.18;99658.13;261801;1096;23695;-77
2020/12/20 08:15:25;;;;;;;18.45;11.15;;;;;;;3.75;82.00;99653.56;262200;1096;23864;-76
2020/12/20 08:20:28;;;;;;;21.77;11.07;;;;;;;3.76;81.37;99654.36;262056;1096;23370;-77
2020/12/20 08:25:30;;;;;;;25.27;15.27;;;;;;;3.86;82.01;99662.62;262349;1102;23798;-77
2020/12/20 08:30:36;;;;;;;43.33;22.40;;;;;;;4.03;82.35;99665.47;262040;1094;23434;-76
2020/12/20 08:35:38;;;;;;;38.73;21.03;;;;;;;4.13;81.67;99670.24;262491;1096;23424;-77
2020/12/20 08:40:40;;;;;;;40.60;21.05;;;;;;;4.10;81.18;99668.84;262186;1101;23461;-77
2020/12/20 08:45:45;;;;;;;48.50;23.63;;;;;;;4.14;80.99;99676.34;261838;1097;23491;-77
2020/12/20 08:50:55;;;;;;;42.90;23.27;;;;;;;4.25;81.42;99668.45;261551;1101;23429;-77
2020/12/20 08:56:07;;;;;;;35.37;18.93;;;;;;;4.38;81.38;99669.28;261431;1101;26916;-77
2020/12/20 09:01:15;;;;;;;50.30;24.17;;;;;;;4.39;80.68;99676.22;261461;1101;23365;-77
2020/12/20 09:06:17;;;;;;;50.27;26.73;;;;;;;4.51;80.74;99674.42;261532;1101;23516;-78
2020/12/20 09:11:26;;;;;;;49.57;26.97;;;;;;;4.63;80.85;99677.09;261440;1101;23331;-81
2020/12/20 09:16:40;;;;;;;46.13;25.03;;;;;;;4.73;80.50;99669.41;261615;1101;23420;-77
2020/12/20 09:21:48;;;;;;;53.60;25.13;;;;;;;4.79;80.06;99675.64;261690;1101;23461;-78
2020/12/20 09:26:55;;;;;;;57.40;27.70;;;;;;;4.83;80.34;99678.64;261632;1101;24430;-77
2020/12/20 09:32:00;;;;;;;52.97;25.80;;;;;;;4.84;79.01;99682.92;261522;1101;23467;-78
2020/12/20 09:37:05;;;;;;;51.87;27.43;;;;;;;4.75;79.14;99664.66;261623;1101;23593;-79
2020/12/20 09:42:07;;;;;;;48.20;26.50;;;;;;;4.73;78.99;99663.27;261554;1101;23391;-77
2020/12/20 09:47:10;;;;;;;55.50;28.97;;;;;;;4.63;79.15;99667.30;261836;1101;23951;-77
2020/12/20 09:52:13;;;;;;;62.60;31.30;;;;;;;4.63;79.64;99669.95;261638;1101;23362;-78
2020/12/20 09:57:34;;;;;;;58.47;31.80;;;;;;;4.67;78.57;99672.15;261890;1101;23495;-77
2020/12/20 10:02:36;;;;;;;60.65;30.90;;;;;;;4.54;78.56;99660.69;261454;1101;23357;-78
2020/12/20 10:07:41;;;;;;;63.43;31.60;;;;;;;4.53;78.62;99667.02;261479;1101;23465;-78
2020/12/20 10:12:43;;;;;;;52.40;28.27;;;;;;;4.57;78.41;99660.23;261765;1101;24094;-78
2020/12/20 10:17:47;;;;;;;57.70;28.37;;;;;;;4.49;78.73;99663.23;261628;1101;23408;-78
2020/12/20 10:22:49;;;;;;;59.65;30.10;;;;;;;4.44;78.58;99661.23;261650;1101;23480;-78
2020/12/20 10:27:56;;;;;;;61.80;33.15;;;;;;;4.47;78.92;99659.19;261579;1101;23365;-77
2020/12/20 10:32:58;;;;;;;60.77;33.27;;;;;;;4.60;79.06;99658.97;261679;1102;23390;-79
2020/12/20 10:38:00;;;;;;;56.30;27.60;;;;;;;4.77;79.29;99659.95;261529;1101;23416;-78
2020/12/20 10:43:02;;;;;;;54.33;28.27;;;;;;;4.88;78.27;99654.88;261763;1101;23686;-77
2020/12/20 10:48:04;;;;;;;62.47;32.57;;;;;;;4.87;78.36;99647.94;261545;1101;23408;-78
2020/12/20 10:53:06;;;;;;;52.20;28.17;;;;;;;4.94;78.58;99646.81;261579;1101;23365;-78
2020/12/20 10:58:11;;;;;;;35.67;19.47;;;;;;;4.99;77.96;99648.77;261829;1101;23355;-79
2020/12/20 11:03:13;;;;;;;19.53;11.30;;;;;;;4.99;77.62;99650.63;261590;1101;23369;-78
2020/12/20 11:08:16;;;;;;;15.90;10.43;;;;;;;4.94;77.39;99641.50;261553;1101;23470;-77
2020/12/20 11:13:18;;;;;;;20.27;11.37;;;;;;;4.94;78.02;99643.36;261517;1101;23348;-77
2020/12/20 11:18:20;;;;;;;19.07;11.37;;;;;;;4.96;77.64;99641.27;261516;1101;23455;-78
2020/12/20 11:23:22;;;;;;;16.60;9.80;;;;;;;4.97;77.76;99649.00;261629;1101;23353;-77
2020/12/20 11:28:33;;;;;;;15.25;9.70;;;;;;;5.03;77.83;99638.50;261837;1101;23714;-77
2020/12/20 11:33:36;;;;;;;19.27;10.80;;;;;;;5.01;76.94;99638.73;261482;1101;23408;-77
2020/12/20 11:38:38;;;;;;;18.35;9.95;;;;;;;4.97;76.73;99645.55;261677;1101;23408;-77
2020/12/20 11:43:41;;;;;;;16.33;9.67;;;;;;;4.94;77.08;99646.81;261569;1101;23418;-77
2020/12/20 11:48:44;;;;;;;16.53;10.17;;;;;;;4.96;77.14;99642.06;261531;1102;23402;-78
2020/12/20 11:53:48;;;;;;;16.07;9.50;;;;;;;4.94;76.84;99646.02;261337;1101;23545;-78
2020/12/20 11:58:51;;;;;;;17.03;10.67;;;;;;;4.86;76.85;99654.31;261774;1101;23553;-77
2020/12/20 12:03:53;;;;;;;19.77;11.97;;;;;;;4.90;77.02;99636.88;261603;1101;23607;-78
2020/12/20 12:08:56;;;;;;;17.30;10.30;;;;;;;4.91;77.03;99641.97;261546;1101;23398;-78
2020/12/20 12:13:58;;;;;;;15.93;10.20;;;;;;;4.93;76.73;99645.19;261673;1101;23429;-77
2020/12/20 12:19:00;;;;;;;17.40;9.65;;;;;;;4.93;77.32;99634.56;261492;1101;23553;-77
2020/12/20 12:24:02;;;;;;;23.83;12.73;;;;;;;4.94;77.11;99640.70;261513;1101;23346;-78
2020/12/20 12:29:08;;;;;;;22.87;12.90;;;;;;;4.94;76.67;99640.70;262374;1101;26901;-77
2020/12/20 12:34:11;;;;;;;18.17;10.43;;;;;;;4.79;76.60;99633.17;261684;1101;23417;-78
2020/12/20 12:39:14;;;;;;;17.87;10.53;;;;;;;4.71;76.86;99631.64;261666;1101;23357;-78
2020/12/20 12:44:16;;;;;;;17.63;10.30;;;;;;;4.75;77.27;99632.02;261577;1101;23383;-78
2020/12/20 12:49:18;;;;;;;18.95;10.80;;;;;;;4.74;77.64;99633.04;261539;1101;23386;-76
2020/12/20 12:54:20;;;;;;;21.00;12.13;;;;;;;4.77;77.31;99622.78;261526;1101;23461;-77
2020/12/20 12:59:31;;;;;;;21.02;12.63;;;;;;;4.90;77.50;99627.06;261466;1101;23524;-78
2020/12/20 13:04:35;;;;;;;17.87;11.60;;;;;;;5.04;77.77;99621.54;261540;1101;23491;-77
2020/12/20 13:09:37;;;;;;;20.03;11.70;;;;;;;5.17;78.14;99610.66;262009;1101;24753;-78
2020/12/20 13:14:39;;;;;;;21.43;12.63;;;;;;;5.19;77.53;99605.12;262106;1101;28202;-77
2020/12/20 13:19:41;;;;;;;23.63;13.73;;;;;;;5.14;77.28;99613.80;261681;1101;23411;-78
2020/12/20 13:24:43;;;;;;;21.90;13.45;;;;;;;5.09;77.20;99626.95;261431;1101;23359;-78
2020/12/20 13:29:48;;;;;;;19.73;12.37;;;;;;;5.08;77.33;99620.04;261323;1102;26856;-78
2020/12/20 13:34:52;;;;;;;21.70;12.80;;;;;;;5.03;77.16;99622.57;261548;1101;23391;-78
2020/12/20 13:39:54;;;;;;;20.67;11.30;;;;;;;4.97;77.10;99625.10;261604;1101;23359;-79
2020/12/20 13:45:04;;;;;;;;;;;;;;;4.96;77.04;99631.44;261512;1101;23333;-78
2020/12/20 13:50:06;;;;;;;26.97;13.10;;;;;;;4.99;77.24;99635.48;261848;1101;21805;-78
2020/12/20 13:55:09;;;;;;;25.03;12.90;;;;;;;5.02;77.68;99650.16;261737;1101;23420;-78
2020/12/20 14:00:12;;;;;;;22.20;12.30;;;;;;;4.96;77.20;99647.38;261683;1101;23518;-78
2020/12/20 14:05:15;;;;;;;20.47;12.70;;;;;;;4.88;77.14;99650.39;261467;1101;23921;-79
2020/12/20 14:10:19;;;;;;;24.13;13.07;;;;;;;4.74;76.93;99643.66;261652;1101;23355;-78
2020/12/20 14:15:21;;;;;;;20.70;12.43;;;;;;;4.66;77.06;99639.50;261478;1101;23559;-77
2020/12/20 14:20:23;;;;;;;26.85;15.55;;;;;;;4.54;77.15;99630.70;261333;1101;23343;-77
2020/12/20 14:25:25;;;;;;;25.57;14.23;;;;;;;4.47;77.56;99633.45;261575;1102;23533;-76
2020/12/20 14:30:27;;;;;;;26.15;13.00;;;;;;;4.43;77.28;99630.42;261487;1101;23383;-77
2020/12/20 14:35:29;;;;;;;22.13;13.70;;;;;;;4.35;77.25;99622.82;261488;1101;23491;-78
2020/12/20 14:40:33;;;;;;;26.50;15.13;;;;;;;4.25;77.57;99614.58;261985;1101;23392;-78
2020/12/20 14:45:35;;;;;;;28.23;15.17;;;;;;;4.25;77.58;99617.23;261623;1101;23424;-77
2020/12/20 14:50:37;;;;;;;24.53;14.70;;;;;;;4.26;77.64;99614.34;261493;1101;23408;-78
2020/12/20 14:55:39;;;;;;;27.50;15.67;;;;;;;4.25;78.00;99620.71;261473;1101;23357;-78
2020/12/20 15:00:42;;;;;;;29.23;15.23;;;;;;;4.17;77.94;99623.67;261438;1101;23586;-78
2020/12/20 15:05:45;;;;;;;54.33;25.93;;;;;;;4.13;78.19;99625.16;261730;1101;23422;-78
2020/12/20 15:10:47;;;;;;;58.27;27.63;;;;;;;4.16;78.51;99631.86;261627;1101;23368;-77
2020/12/20 15:15:49;;;;;;;60.77;29.90;;;;;;;4.17;78.32;99614.89;261275;1101;23383;-77
2020/12/20 15:20:52;;;;;;;57.93;29.30;;;;;;;4.12;78.26;99615.58;261571;1102;27747;-78
2020/12/20 15:25:54;;;;;;;54.05;29.80;;;;;;;4.09;78.41;99616.83;261172;1102;23356;-77
2020/12/20 15:30:56;;;;;;;56.60;27.57;;;;;;;4.03;78.36;99615.09;262024;1101;23335;-77
2020/12/20 15:36:02;;;;;;;68.25;34.15;;;;;;;3.97;78.52;99602.72;261599;1101;23418;-77
2020/12/20 15:41:05;;;;;;;60.03;30.53;;;;;;;3.99;78.45;99611.27;261893;1101;23822;-78
2020/12/20 15:46:09;;;;;;;56.17;29.07;;;;;;;4.02;78.60;99604.71;261282;1101;23464;-78
2020/12/20 15:51:22;;;;;;;49.60;26.53;;;;;;;4.00;78.55;99601.46;261812;1101;23559;-77
2020/12/20 15:56:24;;;;;;;69.27;31.20;;;;;;;3.94;78.66;99613.77;261468;1101;23562;-77
2020/12/20 16:01:26;;;;;;;98.87;45.77;;;;;;;3.86;78.55;99614.91;261442;1101;23382;-77
2020/12/20 16:06:30;;;;;;;97.33;47.00;;;;;;;3.83;78.77;99617.18;261802;1101;23575;-77
2020/12/20 16:11:32;;;;;;;91.90;44.37;;;;;;;3.72;78.85;99608.95;261651;1101;23483;-78
2020/12/20 16:16:34;;;;;;;91.63;45.17;;;;;;;3.53;78.68;99602.85;261591;1101;23876;-77
2020/12/20 16:21:37;;;;;;;109.07;45.27;;;;;;;3.33;78.62;99607.55;261588;1101;23357;-77
2020/12/20 16:26:40;;;;;;;95.80;41.85;;;;;;;3.20;79.20;99598.70;261744;1101;23368;-78
2020/12/20 16:31:57;;;;;;;81.97;35.37;;;;;;;3.13;79.25;99603.27;261633;1101;23325;-78
2020/12/20 16:37:03;;;;;;;91.43;39.03;;;;;;;3.03;79.37;99597.67;261507;1101;23347;-77
2020/12/20 16:42:05;;;;;;;86.33;35.80;;;;;;;2.90;78.75;99619.78;261494;1101;23910;-77
2020/12/20 16:47:07;;;;;;;102.57;41.17;;;;;;;2.77;79.46;99636.59;261573;1101;23559;-78
2020/12/20 16:52:10;;;;;;;88.03;38.20;;;;;;;2.65;79.06;99635.66;261702;1101;23362;-78
2020/12/20 16:57:12;;;;;;;80.85;33.20;;;;;;;2.48;79.87;99638.82;261296;1101;23411;-78
2020/12/20 17:02:15;;;;;;;91.27;36.30;;;;;;;2.32;79.50;99634.86;261693;1102;23365;-77
2020/12/20 17:07:36;;;;;;;78.65;33.80;;;;;;;2.29;80.33;99632.63;261729;1101;23356;-78
2020/12/20 17:12:43;;;;;;;76.35;33.25;;;;;;;2.26;80.76;99630.41;261559;1102;23365;-77
2020/12/20 17:17:45;;;;;;;73.37;30.97;;;;;;;2.21;80.21;99628.41;261510;1101;23424;-77
2020/12/20 17:22:48;;;;;;;68.00;29.57;;;;;;;2.13;80.52;99618.08;261501;1101;23559;-77
2020/12/20 17:27:55;;;;;;;58.77;25.53;;;;;;;2.06;80.09;99622.59;261926;1101;23423;-78
2020/12/20 17:33:02;;;;;;;60.10;26.85;;;;;;;2.02;80.20;99634.61;261719;1101;23510;-77
2020/12/20 17:38:04;;;;;;;59.90;25.70;;;;;;;1.95;80.75;99625.91;261539;1101;23353;-77
2020/12/20 17:43:12;;;;;;;64.25;25.25;;;;;;;1.87;81.16;99622.49;261604;1101;23404;-77
2020/12/20 17:48:19;;;;;;;64.63;27.27;;;;;;;1.88;80.86;99618.80;261723;1101;23389;-77
2020/12/20 17:53:27;;;;;;;58.57;24.83;;;;;;;1.88;80.68;99618.80;261654;1101;23416;-77
2020/12/20 17:58:29;;;;;;;49.07;23.20;;;;;;;1.91;81.81;99614.14;261630;1101;23355;-77
2020/12/20 18:03:31;;;;;;;56.33;24.33;;;;;;;1.91;81.71;99614.14;261561;1101;23417;-77
2020/12/20 18:08:33;;;;;;;56.73;26.10;;;;;;;1.93;80.99;99614.72;261669;1101;23477;-76
2020/12/20 18:13:36;;;;;;;48.77;22.73;;;;;;;1.95;81.42;99608.21;261635;1101;23350;-77
2020/12/20 18:18:39;;;;;;;56.93;25.30;;;;;;;1.96;81.05;99619.58;261577;1101;23408;-76
2020/12/20 18:23:42;;;;;;;53.95;23.00;;;;;;;1.94;80.93;99611.06;261741;1101;23418;-77
2020/12/20 18:28:44;;;;;;;47.80;21.23;;;;;;;1.88;80.86;99607.44;261672;1101;23478;-77
2020/12/20 18:33:47;;;;;;;52.97;24.03;;;;;;;1.80;81.44;99605.83;261499;1101;25714;-77
2020/12/20 18:38:49;;;;;;;51.43;24.40;;;;;;;1.79;81.57;99614.80;261519;1101;23329;-78
2020/12/20 18:43:55;;;;;;;58.03;25.07;;;;;;;1.79;82.01;99612.16;261381;1101;23498;-78
2020/12/20 18:48:58;;;;;;;61.57;26.40;;;;;;;1.84;81.43;99616.80;261558;1101;25001;-78
2020/12/20 18:54:00;;;;;;;60.93;26.73;;;;;;;1.85;81.42;99611.30;261602;1101;23517;-77
2020/12/20 18:59:03;;;;;;;58.75;23.75;;;;;;;1.80;81.50;99605.83;261943;1101;23361;-78
2020/12/20 19:04:07;;;;;;;61.73;25.53;;;;;;;1.78;81.77;99588.59;261701;1101;23492;-77
2020/12/20 19:09:11;;;;;;;57.20;23.33;;;;;;;1.76;81.59;99588.78;261863;1101;23356;-77
2020/12/20 19:14:13;;;;;;;45.40;20.87;;;;;;;1.76;81.77;99601.98;261511;1101;23457;-77
2020/12/20 19:19:21;;;;;;;48.40;25.10;;;;;;;1.64;81.09;99616.89;261521;1101;26396;-76
2020/12/20 19:24:25;;;;;;;61.67;26.03;;;;;;;1.59;81.71;99635.19;261670;1101;23416;-77
2020/12/20 19:29:27;;;;;;;56.37;25.80;;;;;;;1.49;82.05;99625.86;261623;1101;23558;-76
2020/12/20 19:34:29;;;;;;;59.10;26.47;;;;;;;1.53;81.54;99642.91;261869;1101;23639;-77
2020/12/20 19:39:35;;;;;;;60.33;25.53;;;;;;;1.61;82.38;99641.06;261579;1101;23344;-76
2020/12/20 19:44:37;;;;;;;60.07;24.70;;;;;;;1.63;82.15;99647.76;261454;1101;23417;-78
2020/12/20 19:49:39;;;;;;;60.57;27.00;;;;;;;1.65;82.15;99651.02;261730;1101;23362;-77
2020/12/20 19:54:42;;;;;;;67.63;28.37;;;;;;;1.63;81.68;99658.33;261620;1101;23558;-77
2020/12/20 19:59:44;;;;;;;67.30;30.67;;;;;;;1.68;82.48;99655.88;261832;1101;23364;-76
2020/12/20 20:04:47;;;;;;;73.13;29.13;;;;;;;1.71;82.17;99647.53;261580;1101;23637;-77
2020/12/20 20:09:49;;;;;;;65.97;28.57;;;;;;;1.74;81.95;99632.30;261540;1101;23409;-77
2020/12/20 20:14:51;;;;;;;73.70;31.17;;;;;;;1.71;81.41;99636.97;261491;1101;23457;-77
2020/12/20 20:19:54;;;;;;;76.20;31.40;;;;;;;1.70;81.67;99640.62;261562;1101;23365;-78
2020/12/20 20:24:56;;;;;;;64.93;29.10;;;;;;;1.70;81.45;99637.18;261482;1101;23918;-77
2020/12/20 20:29:58;;;;;;;73.07;29.53;;;;;;;1.67;81.55;99629.67;261571;1101;24102;-77
2020/12/20 20:35:01;;;;;;;77.55;32.65;;;;;;;1.73;81.76;99626.19;261494;1101;23405;-78
2020/12/20 20:40:03;;;;;;;53.57;25.03;;;;;;;1.77;81.55;99629.23;261974;1101;23467;-77
2020/12/20 20:45:05;;;;;;;58.57;26.23;;;;;;;1.73;81.51;99625.39;261483;1101;23494;-77
2020/12/20 20:50:08;;;;;;;76.10;34.50;;;;;;;1.70;81.53;99626.61;261914;1101;23383;-79
2020/12/20 20:55:11;;;;;;;60.60;27.60;;;;;;;1.75;81.80;99637.38;261604;1101;23559;-78
2020/12/20 21:00:13;;;;;;;55.27;25.20;;;;;;;1.76;81.80;99628.41;261453;1101;25972;-77
2020/12/20 21:05:16;;;;;;;61.87;28.73;;;;;;;1.77;81.93;99629.23;261844;1101;23384;-78
2020/12/20 21:10:18;;;;;;;55.17;27.73;;;;;;;1.77;82.03;99627.39;261559;1101;23811;-76
2020/12/20 21:15:20;;;;;;;56.97;24.97;;;;;;;1.77;82.01;99635.31;261563;1101;23555;-77
2020/12/20 21:20:22;;;;;;;67.20;30.63;;;;;;;1.80;81.67;99637.53;261690;1101;23354;-77
2020/12/20 21:25:25;;;;;;;65.70;29.10;;;;;;;1.80;81.36;99632.25;261482;1101;23392;-77
2020/12/20 21:30:27;;;;;;;75.93;33.53;;;;;;;1.74;81.67;99627.81;261485;1101;23404;-76
2020/12/20 21:35:30;;;;;;;62.40;27.13;;;;;;;1.72;81.60;99624.55;261564;1101;23354;-78
2020/12/20 21:40:32;;;;;;;84.53;35.47;;;;;;;1.72;81.46;99629.84;261502;1101;23410;-77
2020/12/20 21:45:34;;;;;;;71.37;30.13;;;;;;;1.70;81.56;99632.70;261533;1101;23816;-78
2020/12/20 21:50:36;;;;;;;71.10;29.85;;;;;;;1.68;82.20;99633.95;261475;1101;23907;-77
2020/12/20 21:55:39;;;;;;;67.20;30.60;;;;;;;1.68;82.06;99636.59;261280;1101;23553;-77
2020/12/20 22:00:43;;;;;;;70.87;33.80;;;;;;;1.65;81.71;99639.62;261543;1102;23351;-76
2020/12/20 22:05:45;;;;;;;76.80;33.80;;;;;;;1.63;82.12;99646.96;261426;1101;26450;-77
2020/12/20 22:10:48;;;;;;;84.97;40.80;;;;;;;1.63;81.53;99657.52;261422;1101;23414;-77
2020/12/20 22:15:50;;;;;;;74.20;35.37;;;;;;;1.61;82.11;99646.34;261480;1101;23347;-77
2020/12/20 22:20:53;;;;;;;79.85;33.60;;;;;;;1.56;81.53;99641.69;261541;1101;27274;-78
2020/12/20 22:25:55;;;;;;;75.60;32.60;;;;;;;1.59;81.27;99640.47;261541;1101;25774;-78
2020/12/20 22:30:57;;;;;;;82.63;38.20;;;;;;;1.62;82.01;99635.56;261482;1101;23415;-77
2020/12/20 22:35:59;;;;;;;72.45;33.20;;;;;;;1.62;82.01;99634.77;261586;1101;23642;-77
2020/12/20 22:41:01;;;;;;;77.75;33.65;;;;;;;1.58;81.81;99637.03;261545;1101;26811;-76
2020/12/20 22:46:04;;;;;;;70.13;29.97;;;;;;;1.55;81.47;99634.78;261454;1101;23805;-77
2020/12/20 22:51:06;;;;;;;69.77;30.57;;;;;;;1.52;81.95;99646.56;261479;1101;23357;-77
2020/12/20 22:56:08;;;;;;;62.85;27.80;;;;;;;1.44;81.21;99636.25;261453;1101;23493;-78
2020/12/20 23:01:10;;;;;;;79.60;34.80;;;;;;;1.42;81.80;99640.91;261584;1101;23425;-77
2020/12/20 23:06:13;;;;;;;80.73;34.97;;;;;;;1.48;81.68;99649.84;261403;1101;23618;-77
2020/12/20 23:11:16;;;;;;;77.20;35.97;;;;;;;1.52;82.27;99651.05;261573;1102;23405;-77
2020/12/20 23:16:18;;;;;;;66.00;32.05;;;;;;;1.53;81.95;99642.91;261459;1102;23329;-77
2020/12/20 23:21:21;;;;;;;72.60;30.70;;;;;;;1.56;82.21;99649.61;261499;1102;23948;-78
2020/12/20 23:26:23;;;;;;;76.17;32.53;;;;;;;1.54;81.46;99649.82;261575;1101;23410;-78